Minerva Virgo — SXXT — position and weather

sailwx.info

Track history (hours):
 
Tides and Currents Weather Stations Pressure Air Temp Water Temp Dewpoint Dewpoint Depression Visibility Wind Speed Wind Dir Waves Ship Positions

Minerva Virgo

Last reported at 2016-Sep-19 23:33 UTC. Time now 2016-Oct-01 01:25 UTC.
Position N 57°47' E 010°28'.
Warning: this ship's position is 11 days out of date.

Length 182 m; draft 11.3 m.

Type: Ship (hazmat cat C). MMSI: 240730000.

Date/timePositionNaut miles runAvg speedWind from/ knotsBaromVisibWave heightAir tempDewpointWater temp
2016-Sep-19 23:33N 57°47' E 010°28'10 2.2
2016-Sep-19 19:04N 57°41' E 010°43'0 0.1
2016-Sep-19 18:28N 57°41' E 010°43'2 1.0
2016-Sep-19 16:33N 57°42' E 010°47'2311.7
2016-Sep-19 14:33N 57°29' E 011°24'1313.0
2016-Sep-19 13:33N 57°17' E 011°33'1313.1
2016-Sep-19 12:33N 57°05' E 011°41'1313.0
2016-Sep-19 11:33N 56°52' E 011°49'2711.9
2016-Sep-19 09:18N 56°27' E 011°34'2612.5
2016-Sep-19 07:12N 56°05' E 011°08'1013.8
2016-Sep-19 06:29N 55°56' E 010°59'3712.7
2016-Sep-19 03:33N 55°19' E 011°02'1211.9
2016-Sep-19 02:34N 55°07' E 010°59'2713.3
2016-Sep-19 00:33N 54°42' E 010°47'5611.2
2016-Sep-18 19:33N 54°39' E 012°23'4812.0
2016-Sep-18 15:33N 54°59' E 013°39'1312.6
2016-Sep-18 14:33N 55°03' E 013°60'4912.3
2016-Sep-18 10:33N 55°35' E 015°05'10513.2
2016-Sep-18 02:33N 56°07' E 018°04'1413.6
2016-Sep-18 01:33N 56°14' E 018°24'255 8.0
2016-Sep-16 17:33N 59°37' E 023°14'2512.4
2016-Sep-16 15:34N 59°44' E 024°01'  
2016-Sep-14 03:25N 59°48' E 024°60'7013.8
2016-Sep-13 22:22N 59°27' E 022°47'2513.9
2016-Sep-13 20:33N 59°13' E 022°06'12714.1
2016-Sep-13 11:33N 57°25' E 019°59'2814.2
2016-Sep-13 09:34N 57°01' E 019°33'2914.4
2016-Sep-13 07:33N 56°35' E 019°08'1514.5
2016-Sep-13 06:34N 56°23' E 018°55'2814.2
2016-Sep-13 04:34N 56°06' E 018°14'2914.4
2016-Sep-13 02:33N 55°53' E 017°28'4314.5
2016-Sep-12 23:33N 55°42' E 016°13'2914.5
2016-Sep-12 21:33N 55°35' E 015°23'2914.7
2016-Sep-12 19:34N 55°23' E 014°36'2612.9
2016-Sep-12 17:34N 55°10' E 013°57'4213.9
2016-Sep-12 14:33N 55°17' E 012°45'1110.6
2016-Sep-12 13:33N 55°27' E 012°39'1010.0
2016-Sep-12 12:33N 55°37' E 012°42'1212.4
2016-Sep-12 11:33N 55°49' E 012°42'1313.4
2016-Sep-12 10:33N 56°02' E 012°39'3411.4
2016-Sep-12 07:33N 56°28' E 011°58'1413.9
2016-Sep-12 06:33N 56°42' E 011°53'4213.9
2016-Sep-12 03:33N 57°21' E 011°29'3014.8
2016-Sep-12 01:33N 57°44' E 010°52'2813.8
2016-Sep-11 23:33N 57°46' E 010°00'21810.9
2016-Sep-11 03:33N 54°34' E 006°57'1313.1
2016-Sep-11 02:33N 54°25' E 007°14'1313.4
2016-Sep-11 01:33N 54°16' E 007°30'1413.6
2016-Sep-11 00:34N 54°07' E 007°48'1414.2
2016-Sep-10 23:33N 54°01' E 008°10'1414.4
2016-Sep-10 22:33N 53°58' E 008°34'1514.8
2016-Sep-10 21:34N 53°51' E 008°56'1312.9
2016-Sep-10 20:34N 53°52' E 009°17'1212.4
2016-Sep-10 19:33N 53°42' E 009°30'1110.7
2016-Sep-10 18:33N 53°34' E 009°42'7 7.3
2016-Sep-10 17:33N 53°33' E 009°54'3 3.0
2016-Sep-10 16:33N 53°30' E 009°57'0 0.0
2016-Sep-10 15:33N 53°30' E 009°57'0 0.0
2016-Sep-10 14:33N 53°30' E 009°57'0 0.0
2016-Sep-10 13:33N 53°30' E 009°57'0 0.0
2016-Sep-10 12:33N 53°30' E 009°57'0 0.0
2016-Sep-10 11:33N 53°30' E 009°57'0 0.0
2016-Sep-10 10:33N 53°30' E 009°57'0 0.0
2016-Sep-10 09:33N 53°30' E 009°57'0 0.0
2016-Sep-10 08:33N 53°30' E 009°57'0 0.0
2016-Sep-10 07:33N 53°30' E 009°57'0 0.0
2016-Sep-10 06:33N 53°30' E 009°57'0 0.0
2016-Sep-10 05:33N 53°30' E 009°57'0 0.0
2016-Sep-10 04:33N 53°30' E 009°57'0 0.0
2016-Sep-10 03:33N 53°30' E 009°57'0 0.0
2016-Sep-10 02:33N 53°30' E 009°57'0 0.0
2016-Sep-10 01:33N 53°30' E 009°57'0 0.1
2016-Sep-10 00:33N 53°30' E 009°57'  
Track history (hours):
 
Tides and Currents Weather Stations Pressure Air Temp Water Temp Dewpoint Dewpoint Depression Visibility Wind Speed Wind Dir Waves Ship Positions

Minerva Virgo

Last reported at 2016-Sep-19 23:33 UTC. Time now 2016-Oct-01 01:25 UTC.
Position N 57°47' E 010°28'.
Warning: this ship's position is 11 days out of date.

Length 182 m; draft 11.3 m.

Type: Ship (hazmat cat C). MMSI: 240730000.

Date/timePositionNaut miles runAvg speedWind from/ knotsBaromVisibWave heightAir tempDewpointWater temp
2016-Sep-19 23:33N 57°47' E 010°28'10 2.2
2016-Sep-19 19:04N 57°41' E 010°43'0 0.1
2016-Sep-19 18:28N 57°41' E 010°43'2 1.0
2016-Sep-19 16:33N 57°42' E 010°47'2311.7
2016-Sep-19 14:33N 57°29' E 011°24'1313.0
2016-Sep-19 13:33N 57°17' E 011°33'1313.1
2016-Sep-19 12:33N 57°05' E 011°41'1313.0
2016-Sep-19 11:33N 56°52' E 011°49'2711.9
2016-Sep-19 09:18N 56°27' E 011°34'2612.5
2016-Sep-19 07:12N 56°05' E 011°08'1013.8
2016-Sep-19 06:29N 55°56' E 010°59'3712.7
2016-Sep-19 03:33N 55°19' E 011°02'1211.9
2016-Sep-19 02:34N 55°07' E 010°59'2713.3
2016-Sep-19 00:33N 54°42' E 010°47'5611.2
2016-Sep-18 19:33N 54°39' E 012°23'4812.0
2016-Sep-18 15:33N 54°59' E 013°39'1312.6
2016-Sep-18 14:33N 55°03' E 013°60'4912.3
2016-Sep-18 10:33N 55°35' E 015°05'10513.2
2016-Sep-18 02:33N 56°07' E 018°04'1413.6
2016-Sep-18 01:33N 56°14' E 018°24'255 8.0
2016-Sep-16 17:33N 59°37' E 023°14'2512.4
2016-Sep-16 15:34N 59°44' E 024°01'  
2016-Sep-14 03:25N 59°48' E 024°60'7013.8
2016-Sep-13 22:22N 59°27' E 022°47'2513.9
2016-Sep-13 20:33N 59°13' E 022°06'12714.1
2016-Sep-13 11:33N 57°25' E 019°59'2814.2
2016-Sep-13 09:34N 57°01' E 019°33'2914.4
2016-Sep-13 07:33N 56°35' E 019°08'1514.5
2016-Sep-13 06:34N 56°23' E 018°55'2814.2
2016-Sep-13 04:34N 56°06' E 018°14'2914.4
2016-Sep-13 02:33N 55°53' E 017°28'4314.5
2016-Sep-12 23:33N 55°42' E 016°13'2914.5
2016-Sep-12 21:33N 55°35' E 015°23'2914.7
2016-Sep-12 19:34N 55°23' E 014°36'2612.9
2016-Sep-12 17:34N 55°10' E 013°57'4213.9
2016-Sep-12 14:33N 55°17' E 012°45'1110.6
2016-Sep-12 13:33N 55°27' E 012°39'1010.0
2016-Sep-12 12:33N 55°37' E 012°42'1212.4
2016-Sep-12 11:33N 55°49' E 012°42'1313.4
2016-Sep-12 10:33N 56°02' E 012°39'3411.4
2016-Sep-12 07:33N 56°28' E 011°58'1413.9
2016-Sep-12 06:33N 56°42' E 011°53'4213.9
2016-Sep-12 03:33N 57°21' E 011°29'3014.8
2016-Sep-12 01:33N 57°44' E 010°52'2813.8
2016-Sep-11 23:33N 57°46' E 010°00'21810.9
2016-Sep-11 03:33N 54°34' E 006°57'1313.1
2016-Sep-11 02:33N 54°25' E 007°14'1313.4
2016-Sep-11 01:33N 54°16' E 007°30'1413.6
2016-Sep-11 00:34N 54°07' E 007°48'1414.2
2016-Sep-10 23:33N 54°01' E 008°10'1414.4
2016-Sep-10 22:33N 53°58' E 008°34'1514.8
2016-Sep-10 21:34N 53°51' E 008°56'1312.9
2016-Sep-10 20:34N 53°52' E 009°17'1212.4
2016-Sep-10 19:33N 53°42' E 009°30'1110.7
2016-Sep-10 18:33N 53°34' E 009°42'7 7.3
2016-Sep-10 17:33N 53°33' E 009°54'3 3.0
2016-Sep-10 16:33N 53°30' E 009°57'0 0.0
2016-Sep-10 15:33N 53°30' E 009°57'0 0.0
2016-Sep-10 14:33N 53°30' E 009°57'0 0.0
2016-Sep-10 13:33N 53°30' E 009°57'0 0.0
2016-Sep-10 12:33N 53°30' E 009°57'0 0.0
2016-Sep-10 11:33N 53°30' E 009°57'0 0.0
2016-Sep-10 10:33N 53°30' E 009°57'0 0.0
2016-Sep-10 09:33N 53°30' E 009°57'0 0.0
2016-Sep-10 08:33N 53°30' E 009°57'0 0.0
2016-Sep-10 07:33N 53°30' E 009°57'0 0.0
2016-Sep-10 06:33N 53°30' E 009°57'0 0.0
2016-Sep-10 05:33N 53°30' E 009°57'0 0.0
2016-Sep-10 04:33N 53°30' E 009°57'0 0.0
2016-Sep-10 03:33N 53°30' E 009°57'0 0.0
2016-Sep-10 02:33N 53°30' E 009°57'0 0.0
2016-Sep-10 01:33N 53°30' E 009°57'0 0.1
2016-Sep-10 00:33N 53°30' E 009°57'  

Dump ship's entire track history